createdAt,value
2022-08-07T00:00:07.109Z,4.90
2022-08-07T00:05:07.025Z,5.10
2022-08-07T00:10:26.359Z,5.00
2022-08-07T00:15:09.363Z,4.20
2022-08-07T00:20:09.026Z,4.10
2022-08-07T00:25:16.628Z,4.40
2022-08-07T00:30:27.644Z,3.90
2022-08-07T00:35:11.852Z,3.80
2022-08-07T00:40:11.391Z,3.00
2022-08-07T00:45:16.496Z,3.20
2022-08-07T00:50:20.193Z,2.80
2022-08-07T00:55:14.360Z,3.00
2022-08-07T01:00:14.196Z,2.90
2022-08-07T01:05:19.447Z,2.80
2022-08-07T01:10:16.563Z,2.80
2022-08-07T01:15:17.639Z,3.00
2022-08-07T01:20:17.460Z,3.00
2022-08-07T01:25:54.580Z,3.30
2022-08-07T01:30:19.387Z,3.60
2022-08-07T01:35:19.093Z,3.80
2022-08-07T01:40:20.699Z,3.80
2022-08-07T01:45:22.993Z,3.50
2022-08-07T01:50:28.626Z,3.40
2022-08-07T01:55:24.122Z,2.70
2022-08-07T02:00:28.992Z,2.60
2022-08-07T02:05:48.407Z,3.00
2022-08-07T02:10:24.631Z,2.50
2022-08-07T02:15:26.409Z,2.60
2022-08-07T02:20:25.385Z,2.40
2022-08-07T02:26:10.275Z,2.40
2022-08-07T02:30:27.385Z,2.20
2022-08-07T02:36:27.011Z,2.10
2022-08-07T02:40:30.621Z,2.20
2022-08-07T02:46:00.694Z,2.20
2022-08-07T02:50:30.826Z,2.30
2022-08-07T02:56:03.235Z,2.60
2022-08-07T03:00:31.245Z,2.30
2022-08-07T03:05:35.909Z,2.40
2022-08-07T03:10:32.466Z,2.50
2022-08-07T03:15:55.641Z,2.50
2022-08-07T03:20:33.654Z,2.10
2022-08-07T03:25:40.489Z,2.50
2022-08-07T03:30:34.906Z,2.20
2022-08-07T03:35:43.524Z,2.20
2022-08-07T03:40:36.842Z,2.40
2022-08-07T03:45:43.278Z,2.60
2022-08-07T03:50:37.600Z,2.80
2022-08-07T03:55:58.303Z,2.50
2022-08-07T04:00:38.895Z,2.30
2022-08-07T04:12:27.436Z,2.40
2022-08-07T04:16:30.840Z,2.60
2022-08-07T04:21:31.189Z,2.40
2022-08-07T04:26:30.085Z,2.40
2022-08-07T04:31:39.187Z,2.30
2022-08-07T04:36:32.394Z,2.60
2022-08-07T04:41:32.157Z,2.60
2022-08-07T04:46:34.824Z,2.60
2022-08-07T04:51:33.067Z,2.80
2022-08-07T04:58:11.959Z,2.90
2022-08-07T05:01:35.440Z,2.70
2022-08-07T05:06:43.710Z,2.80
2022-08-07T05:11:58.301Z,2.80
2022-08-07T05:16:37.281Z,2.60
2022-08-07T05:22:00.444Z,2.70
2022-08-07T05:26:38.412Z,2.60
2022-08-07T05:31:38.030Z,2.70
2022-08-07T05:36:39.200Z,2.40
2022-08-07T05:42:00.554Z,2.60
2022-08-07T05:46:41.007Z,2.50
2022-08-07T05:51:40.825Z,2.40
2022-08-07T05:56:41.602Z,2.50
2022-08-07T06:01:42.361Z,2.30
2022-08-07T06:06:46.099Z,1.80
2022-08-07T06:11:43.763Z,2.10
2022-08-07T06:16:44.427Z,2.10
2022-08-07T06:22:16.919Z,1.90
2022-08-07T06:26:46.528Z,2.00
2022-08-07T06:31:49.930Z,2.00
2022-08-07T06:36:47.318Z,1.90
2022-08-07T06:42:00.941Z,2.00
2022-08-07T06:46:53.541Z,1.90
2022-08-07T06:51:50.406Z,2.00
2022-08-07T06:56:50.547Z,2.00
2022-08-07T07:01:50.925Z,1.90
2022-08-07T07:07:00.131Z,1.90
2022-08-07T07:12:08.672Z,1.80
2022-08-07T07:16:53.472Z,1.80
2022-08-07T07:22:12.160Z,1.80
2022-08-07T07:26:54.446Z,1.90
2022-08-07T07:31:54.233Z,1.90
2022-08-07T07:36:54.912Z,1.90
2022-08-07T07:42:13.251Z,1.70
2022-08-07T07:47:04.340Z,1.90
2022-08-07T07:51:59.714Z,1.70
2022-08-07T07:56:57.645Z,1.70
2022-08-07T08:02:03.811Z,1.70
2022-08-07T08:07:00.697Z,1.50
2022-08-07T08:12:02.803Z,1.70
2022-08-07T08:17:55.893Z,1.90
2022-08-07T08:22:03.244Z,1.70
2022-08-07T08:27:01.509Z,1.50
2022-08-07T08:32:18.227Z,1.60
2022-08-07T08:37:03.683Z,1.50
2022-08-07T08:42:04.152Z,1.70
2022-08-07T08:47:03.974Z,1.90
2022-08-07T08:52:14.470Z,1.70
2022-08-07T08:57:06.174Z,1.60
2022-08-07T09:02:08.982Z,1.60
2022-08-07T09:07:06.375Z,1.80
2022-08-07T09:12:30.592Z,1.80
2022-08-07T09:17:08.454Z,1.80
2022-08-07T09:22:23.021Z,1.90
2022-08-07T09:27:12.082Z,1.70
2022-08-07T09:32:17.244Z,1.70
2022-08-07T09:37:11.054Z,1.70
2022-08-07T09:42:16.951Z,2.10
2022-08-07T09:47:51.687Z,1.60
2022-08-07T09:52:33.503Z,1.50
2022-08-07T09:57:13.732Z,1.60
2022-08-07T10:02:13.339Z,1.60
2022-08-07T10:07:26.024Z,1.40
2022-08-07T10:12:21.379Z,1.30
2022-08-07T10:17:16.562Z,1.70
2022-08-07T10:22:17.157Z,1.80
2022-08-07T10:27:16.536Z,1.80
2022-08-07T10:32:36.847Z,1.40
2022-08-07T10:37:18.769Z,1.40
2022-08-07T10:42:20.810Z,1.60
2022-08-07T10:47:19.141Z,1.50
2022-08-07T10:52:20.737Z,1.50
2022-08-07T10:57:22.054Z,1.40
2022-08-07T11:02:33.038Z,1.60
2022-08-07T11:07:56.552Z,2.20
2022-08-07T11:12:32.102Z,2.30
2022-08-07T11:17:43.290Z,2.10
2022-08-07T11:22:32.468Z,2.40
2022-08-07T11:27:24.710Z,2.00
2022-08-07T11:32:26.533Z,1.70
2022-08-07T11:37:25.233Z,2.70
2022-08-07T11:42:29.938Z,1.80
2022-08-07T11:47:38.538Z,1.50
2022-08-07T11:52:29.017Z,1.80
2022-08-07T11:57:59.704Z,1.90
2022-08-07T12:02:30.384Z,1.60
2022-08-07T12:07:38.954Z,1.60
2022-08-07T12:12:30.569Z,2.00
2022-08-07T12:17:33.928Z,1.70
2022-08-07T12:22:37.501Z,1.50
2022-08-07T12:28:08.667Z,1.60
2022-08-07T12:32:33.327Z,1.70
2022-08-07T12:38:09.599Z,1.50
2022-08-07T12:42:34.529Z,1.30
2022-08-07T12:47:37.756Z,1.70
2022-08-07T12:52:35.971Z,1.50
2022-08-07T12:57:39.328Z,1.60
2022-08-07T13:02:37.212Z,1.80
2022-08-07T13:08:12.947Z,1.40
2022-08-07T13:12:38.385Z,1.60
2022-08-07T13:17:41.007Z,1.60
2022-08-07T13:22:39.222Z,1.50
2022-08-07T13:28:14.551Z,1.30
2022-08-07T13:32:41.627Z,1.40
2022-08-07T13:37:41.478Z,1.50
2022-08-07T13:42:42.159Z,1.80
2022-08-07T13:48:06.767Z,1.80
2022-08-07T13:52:44.634Z,1.60
2022-08-07T13:57:57.921Z,1.60
2022-08-07T14:02:50.813Z,1.90
2022-08-07T14:08:00.014Z,1.50
2022-08-07T14:12:53.966Z,1.50
2022-08-07T14:18:12.888Z,1.90
2022-08-07T14:22:48.175Z,1.50
2022-08-07T14:28:12.189Z,3.20
2022-08-07T14:32:49.428Z,1.60
2022-08-07T14:38:05.463Z,1.60
2022-08-07T14:47:51.294Z,1.40
2022-08-07T14:52:51.753Z,2.80
2022-08-07T14:57:54.657Z,1.30
2022-08-07T15:02:56.709Z,1.50
2022-08-07T15:12:54.997Z,1.40
2022-08-07T15:17:54.906Z,1.40
2022-08-07T15:22:54.430Z,1.70
2022-08-07T15:28:32.453Z,1.60
2022-08-07T15:33:04.186Z,1.30
2022-08-07T15:42:57.667Z,2.00
2022-08-07T15:48:00.426Z,1.40
2022-08-07T15:52:58.203Z,2.30
2022-08-07T15:58:00.348Z,1.60
2022-08-07T16:02:59.637Z,1.40
2022-08-07T16:08:32.105Z,2.60
2022-08-07T16:13:05.560Z,1.60
2022-08-07T16:18:03.800Z,1.60
2022-08-07T16:23:11.893Z,2.10
2022-08-07T16:28:02.973Z,2.10
2022-08-07T16:34:01.626Z,1.70
2022-08-07T16:38:09.487Z,2.10
2022-08-07T16:43:05.775Z,3.90
2022-08-07T16:48:05.572Z,3.00
2022-08-07T16:53:55.407Z,2.10
2022-08-07T16:58:08.251Z,1.80
2022-08-07T17:03:07.584Z,2.00
2022-08-07T17:08:09.178Z,2.00
2022-08-07T17:13:09.204Z,2.20
2022-08-07T17:18:13.998Z,1.90
2022-08-07T17:23:12.986Z,2.10
2022-08-07T17:28:11.887Z,2.50
2022-08-07T17:34:10.311Z,2.00
2022-08-07T17:38:33.164Z,2.30
2022-08-07T17:43:18.294Z,2.20
2022-08-07T17:48:13.807Z,2.40
2022-08-07T17:53:55.658Z,2.60
2022-08-07T17:58:30.660Z,2.50
2022-08-07T18:03:18.520Z,2.10
2022-08-07T18:08:24.414Z,2.20
2022-08-07T18:13:18.023Z,2.10
2022-08-07T18:18:44.993Z,1.70
2022-08-07T18:23:42.301Z,2.00
2022-08-07T18:28:35.798Z,1.80
2022-08-07T18:33:21.489Z,2.20
2022-08-07T18:38:57.914Z,1.90
2022-08-07T18:43:42.994Z,2.10
2022-08-07T18:50:32.923Z,2.00
2022-08-07T18:53:36.838Z,3.30
2022-08-07T18:58:23.425Z,2.30
2022-08-07T19:03:35.371Z,1.80
2022-08-07T19:08:25.270Z,2.10
2022-08-07T19:13:24.766Z,2.40
2022-08-07T19:18:34.545Z,2.80
2022-08-07T19:23:57.053Z,2.70
2022-08-07T19:28:57.464Z,2.50
2022-08-07T19:33:35.257Z,2.70
2022-08-07T19:38:28.308Z,3.00
2022-08-07T19:43:49.290Z,3.10
2022-08-07T19:48:29.763Z,2.90
2022-08-07T19:54:32.314Z,2.70
2022-08-07T20:15:58.733Z,3.00
2022-08-07T20:20:58.108Z,2.90
2022-08-07T20:25:58.824Z,3.20
2022-08-07T20:31:00.445Z,3.70
2022-08-07T20:36:03.099Z,3.30
2022-08-07T20:41:01.067Z,3.40
2022-08-07T20:46:26.962Z,3.30
2022-08-07T20:51:03.326Z,3.10
2022-08-07T20:56:02.909Z,2.80
2022-08-07T21:01:03.644Z,3.00
2022-08-07T21:06:04.468Z,2.70
2022-08-07T21:11:07.550Z,2.90
2022-08-07T21:16:06.600Z,3.30
2022-08-07T21:21:06.387Z,2.70
2022-08-07T21:26:07.467Z,3.00
2022-08-07T21:31:07.710Z,3.10
2022-08-07T21:36:12.232Z,2.90
2022-08-07T21:41:11.035Z,3.20
2022-08-07T21:46:13.986Z,3.30
2022-08-07T21:51:19.867Z,3.00
2022-08-07T21:56:35.698Z,2.50
2022-08-07T22:12:49.903Z,2.90
2022-08-07T22:17:51.632Z,3.50
2022-08-07T22:22:58.374Z,2.90
2022-08-07T22:28:29.448Z,3.30
2022-08-07T22:32:53.863Z,3.40
2022-08-07T22:38:01.694Z,3.40
2022-08-07T22:42:55.600Z,3.50
2022-08-07T22:47:55.037Z,3.00
2022-08-07T22:52:55.733Z,4.00
2022-08-07T22:57:59.069Z,2.90
2022-08-07T23:02:57.442Z,3.00
2022-08-07T23:07:58.285Z,2.80
2022-08-07T23:12:59.087Z,2.90
2022-08-07T23:17:59.891Z,2.90
2022-08-07T23:23:00.592Z,2.60
2022-08-07T23:28:22.558Z,2.60
2022-08-07T23:34:22.666Z,2.80
2022-08-07T23:38:03.940Z,3.10
2022-08-07T23:43:03.309Z,3.00
2022-08-07T23:48:04.894Z,2.90
2022-08-07T23:53:08.459Z,3.10
2022-08-07T23:58:06.024Z,3.10
